EGHE/ISC METAR and TAF weather

Enter ICAO airport designator
Station Type Date Time Source
EGHE METAR 2021/09/23 16:20 UTC NOAA

EGHE 231620Z 31010KT 9999 SCT015 17/15 Q1021


Station Type Date Time Source
EGHE Decoded METAR 2021/09/23 16:20 UTC NOAA

Scilly, Saint Mary'S, United Kingdom (EGHE) 49-55N 006-18W 0M
Sep 23, 2021 - 12:20 PM EDT / 2021.09.23 1620 UTC
Wind: from the NW (310 degrees) at 12 MPH (10 KT):0
Visibility: greater than 7 mile(s):0
Sky conditions: partly cloudy
Temperature: 62 F (17 C)
Dew Point: 59 F (15 C)
Relative Humidity: 88%
Pressure (altimeter): 30.15 in. Hg (1021 hPa)
ob: EGHE 231620Z 31010KT 9999 SCT015 17/15 Q1021
cycle: 16

Station Type Date Time Source
EGHE TAF UTC NOAA

Error!

Example: see airport list